sensor_id;sensor_type;location;lat;lon;timestamp;P1;durP1;ratioP1;P2;durP2;ratioP2
21543;SDS011;10933;50.754;11.508;2023-05-10T00:00:24;3.42;;;3.17;;
21543;SDS011;10933;50.754;11.508;2023-05-10T00:02:50;5.57;;;3.35;;
21543;SDS011;10933;50.754;11.508;2023-05-10T00:05:16;3.67;;;3.47;;
21543;SDS011;10933;50.754;11.508;2023-05-10T00:07:41;3.63;;;3.33;;
21543;SDS011;10933;50.754;11.508;2023-05-10T00:10:09;3.70;;;3.50;;
21543;SDS011;10933;50.754;11.508;2023-05-10T00:12:36;6.70;;;3.58;;
21543;SDS011;10933;50.754;11.508;2023-05-10T00:15:02;3.63;;;3.35;;
21543;SDS011;10933;50.754;11.508;2023-05-10T00:17:29;3.72;;;3.33;;
21543;SDS011;10933;50.754;11.508;2023-05-10T00:19:54;3.72;;;3.42;;
21543;SDS011;10933;50.754;11.508;2023-05-10T00:22:20;4.32;;;3.90;;
21543;SDS011;10933;50.754;11.508;2023-05-10T00:24:46;4.20;;;3.72;;
21543;SDS011;10933;50.754;11.508;2023-05-10T00:27:12;3.70;;;3.40;;
21543;SDS011;10933;50.754;11.508;2023-05-10T00:29:37;5.80;;;3.55;;
21543;SDS011;10933;50.754;11.508;2023-05-10T00:32:03;4.53;;;3.75;;
21543;SDS011;10933;50.754;11.508;2023-05-10T00:34:30;3.60;;;3.40;;
21543;SDS011;10933;50.754;11.508;2023-05-10T00:36:56;4.85;;;3.60;;
21543;SDS011;10933;50.754;11.508;2023-05-10T00:39:22;3.80;;;3.60;;
21543;SDS011;10933;50.754;11.508;2023-05-10T00:41:47;3.47;;;3.33;;
21543;SDS011;10933;50.754;11.508;2023-05-10T00:44:13;3.42;;;3.25;;
21543;SDS011;10933;50.754;11.508;2023-05-10T00:46:39;3.60;;;3.40;;
21543;SDS011;10933;50.754;11.508;2023-05-10T00:49:05;3.50;;;3.20;;
21543;SDS011;10933;50.754;11.508;2023-05-10T00:51:31;3.85;;;3.63;;
21543;SDS011;10933;50.754;11.508;2023-05-10T00:53:57;3.47;;;3.28;;
21543;SDS011;10933;50.754;11.508;2023-05-10T00:56:24;3.83;;;3.63;;
21543;SDS011;10933;50.754;11.508;2023-05-10T00:58:51;4.47;;;4.18;;
21543;SDS011;10933;50.754;11.508;2023-05-10T01:01:17;3.75;;;3.53;;
21543;SDS011;10933;50.754;11.508;2023-05-10T01:03:44;8.43;;;3.63;;
21543;SDS011;10933;50.754;11.508;2023-05-10T01:06:11;3.67;;;3.47;;
21543;SDS011;10933;50.754;11.508;2023-05-10T01:08:38;3.95;;;3.60;;
21543;SDS011;10933;50.754;11.508;2023-05-10T01:11:05;3.92;;;3.70;;
21543;SDS011;10933;50.754;11.508;2023-05-10T01:13:38;3.47;;;3.28;;
21543;SDS011;10933;50.754;11.508;2023-05-10T01:16:07;4.07;;;3.55;;
21543;SDS011;10933;50.754;11.508;2023-05-10T01:18:38;3.70;;;3.50;;
21543;SDS011;10933;50.754;11.508;2023-05-10T01:21:21;7.65;;;3.47;;
21543;SDS011;10933;50.754;11.508;2023-05-10T01:33:41;4.10;;;3.70;;
21543;SDS011;10933;50.754;11.508;2023-05-10T01:36:29;3.90;;;3.70;;
21543;SDS011;10933;50.754;11.508;2023-05-10T01:40:03;3.92;;;3.72;;
21543;SDS011;10933;50.754;11.508;2023-05-10T01:42:10;4.60;;;3.65;;
21543;SDS011;10933;50.754;11.508;2023-05-10T01:50:02;3.95;;;3.75;;
21543;SDS011;10933;50.754;11.508;2023-05-10T01:52:38;3.88;;;3.55;;
21543;SDS011;10933;50.754;11.508;2023-05-10T01:55:11;4.20;;;4.00;;
21543;SDS011;10933;50.754;11.508;2023-05-10T01:57:42;3.92;;;3.72;;
21543;SDS011;10933;50.754;11.508;2023-05-10T02:00:11;3.88;;;3.58;;
21543;SDS011;10933;50.754;11.508;2023-05-10T02:02:40;4.40;;;3.97;;
21543;SDS011;10933;50.754;11.508;2023-05-10T02:05:12;3.85;;;3.53;;
21543;SDS011;10933;50.754;11.508;2023-05-10T02:07:40;4.22;;;3.92;;
21543;SDS011;10933;50.754;11.508;2023-05-10T02:10:08;4.07;;;3.78;;
21543;SDS011;10933;50.754;11.508;2023-05-10T02:12:37;3.90;;;3.60;;
21543;SDS011;10933;50.754;11.508;2023-05-10T02:15:08;5.88;;;3.67;;
21543;SDS011;10933;50.754;11.508;2023-05-10T02:17:36;3.90;;;3.70;;
21543;SDS011;10933;50.754;11.508;2023-05-10T02:20:04;4.40;;;4.00;;
21543;SDS011;10933;50.754;11.508;2023-05-10T02:22:32;4.45;;;4.00;;
21543;SDS011;10933;50.754;11.508;2023-05-10T02:25:01;4.43;;;3.97;;
21543;SDS011;10933;50.754;11.508;2023-05-10T02:27:29;5.63;;;3.95;;
21543;SDS011;10933;50.754;11.508;2023-05-10T02:29:55;4.10;;;3.80;;
21543;SDS011;10933;50.754;11.508;2023-05-10T02:32:23;5.65;;;4.00;;
21543;SDS011;10933;50.754;11.508;2023-05-10T02:34:52;5.00;;;3.92;;
21543;SDS011;10933;50.754;11.508;2023-05-10T02:37:20;4.32;;;4.13;;
21543;SDS011;10933;50.754;11.508;2023-05-10T02:39:47;4.20;;;3.90;;
21543;SDS011;10933;50.754;11.508;2023-05-10T02:42:18;3.83;;;3.38;;
21543;SDS011;10933;50.754;11.508;2023-05-10T02:44:52;3.97;;;3.78;;
21543;SDS011;10933;50.754;11.508;2023-05-10T02:47:24;7.60;;;4.35;;
21543;SDS011;10933;50.754;11.508;2023-05-10T02:49:50;4.07;;;3.88;;
21543;SDS011;10933;50.754;11.508;2023-05-10T02:52:18;4.07;;;3.78;;
21543;SDS011;10933;50.754;11.508;2023-05-10T02:54:51;4.00;;;3.80;;
21543;SDS011;10933;50.754;11.508;2023-05-10T02:57:25;3.58;;;3.28;;
21543;SDS011;10933;50.754;11.508;2023-05-10T02:59:56;3.97;;;3.78;;
21543;SDS011;10933;50.754;11.508;2023-05-10T03:02:22;3.92;;;3.70;;
21543;SDS011;10933;50.754;11.508;2023-05-10T03:04:48;4.55;;;4.25;;
21543;SDS011;10933;50.754;11.508;2023-05-10T03:07:14;4.30;;;3.90;;
21543;SDS011;10933;50.754;11.508;2023-05-10T03:09:40;4.47;;;4.28;;
21543;SDS011;10933;50.754;11.508;2023-05-10T03:17:46;5.30;;;4.80;;
21543;SDS011;10933;50.754;11.508;2023-05-10T03:20:25;4.85;;;4.43;;
21543;SDS011;10933;50.754;11.508;2023-05-10T03:23:02;4.35;;;4.07;;
21543;SDS011;10933;50.754;11.508;2023-05-10T03:25:38;4.07;;;3.88;;
21543;SDS011;10933;50.754;11.508;2023-05-10T03:28:08;4.82;;;4.53;;
21543;SDS011;10933;50.754;11.508;2023-05-10T03:30:34;4.55;;;4.25;;
21543;SDS011;10933;50.754;11.508;2023-05-10T03:33:05;4.35;;;4.13;;
21543;SDS011;10933;50.754;11.508;2023-05-10T03:35:31;5.28;;;3.90;;
21543;SDS011;10933;50.754;11.508;2023-05-10T03:37:57;4.35;;;4.05;;
21543;SDS011;10933;50.754;11.508;2023-05-10T03:40:23;4.93;;;4.65;;
21543;SDS011;10933;50.754;11.508;2023-05-10T03:42:50;4.78;;;4.35;;
21543;SDS011;10933;50.754;11.508;2023-05-10T03:45:16;9.32;;;4.32;;
21543;SDS011;10933;50.754;11.508;2023-05-10T03:47:42;4.68;;;4.38;;
21543;SDS011;10933;50.754;11.508;2023-05-10T03:50:08;4.82;;;4.53;;
21543;SDS011;10933;50.754;11.508;2023-05-10T03:52:35;4.65;;;4.28;;
21543;SDS011;10933;50.754;11.508;2023-05-10T03:55:01;5.38;;;4.07;;
21543;SDS011;10933;50.754;11.508;2023-05-10T03:57:28;4.88;;;4.40;;
21543;SDS011;10933;50.754;11.508;2023-05-10T03:59:54;4.50;;;4.20;;
21543;SDS011;10933;50.754;11.508;2023-05-10T04:02:20;4.47;;;4.13;;
21543;SDS011;10933;50.754;11.508;2023-05-10T04:04:45;4.85;;;4.43;;
21543;SDS011;10933;50.754;11.508;2023-05-10T04:07:11;5.13;;;4.72;;
21543;SDS011;10933;50.754;11.508;2023-05-10T04:09:37;4.65;;;4.35;;
21543;SDS011;10933;50.754;11.508;2023-05-10T04:12:03;4.43;;;4.18;;
21543;SDS011;10933;50.754;11.508;2023-05-10T04:14:29;4.95;;;4.65;;
21543;SDS011;10933;50.754;11.508;2023-05-10T04:16:54;5.18;;;4.07;;
21543;SDS011;10933;50.754;11.508;2023-05-10T04:19:20;5.95;;;4.10;;
21543;SDS011;10933;50.754;11.508;2023-05-10T04:21:47;4.63;;;4.32;;
21543;SDS011;10933;50.754;11.508;2023-05-10T04:24:13;4.78;;;4.38;;
21543;SDS011;10933;50.754;11.508;2023-05-10T04:26:39;4.82;;;4.43;;
21543;SDS011;10933;50.754;11.508;2023-05-10T04:29:04;4.10;;;3.90;;
21543;SDS011;10933;50.754;11.508;2023-05-10T04:31:30;4.18;;;3.95;;
21543;SDS011;10933;50.754;11.508;2023-05-10T04:33:56;5.25;;;4.70;;
21543;SDS011;10933;50.754;11.508;2023-05-10T04:36:22;4.05;;;3.70;;
21543;SDS011;10933;50.754;11.508;2023-05-10T04:38:47;4.25;;;4.05;;
21543;SDS011;10933;50.754;11.508;2023-05-10T04:41:13;4.93;;;4.63;;
21543;SDS011;10933;50.754;11.508;2023-05-10T04:43:39;5.18;;;4.88;;
21543;SDS011;10933;50.754;11.508;2023-05-10T04:46:06;4.45;;;4.10;;
21543;SDS011;10933;50.754;11.508;2023-05-10T04:48:34;4.72;;;4.43;;
21543;SDS011;10933;50.754;11.508;2023-05-10T04:51:00;6.03;;;5.30;;
21543;SDS011;10933;50.754;11.508;2023-05-10T04:53:26;9.02;;;4.65;;
21543;SDS011;10933;50.754;11.508;2023-05-10T04:55:51;4.28;;;4.07;;
21543;SDS011;10933;50.754;11.508;2023-05-10T04:58:17;4.40;;;4.10;;
21543;SDS011;10933;50.754;11.508;2023-05-10T05:00:43;6.93;;;4.55;;
21543;SDS011;10933;50.754;11.508;2023-05-10T05:03:09;4.50;;;4.30;;
21543;SDS011;10933;50.754;11.508;2023-05-10T05:05:34;4.40;;;4.10;;
21543;SDS011;10933;50.754;11.508;2023-05-10T05:08:00;4.95;;;4.65;;
21543;SDS011;10933;50.754;11.508;2023-05-10T05:10:26;4.65;;;4.25;;
21543;SDS011;10933;50.754;11.508;2023-05-10T05:12:52;4.68;;;4.38;;
21543;SDS011;10933;50.754;11.508;2023-05-10T05:15:17;4.50;;;4.20;;
21543;SDS011;10933;50.754;11.508;2023-05-10T05:17:43;5.18;;;4.50;;
21543;SDS011;10933;50.754;11.508;2023-05-10T05:20:09;4.88;;;4.50;;
21543;SDS011;10933;50.754;11.508;2023-05-10T05:22:36;4.90;;;4.70;;
21543;SDS011;10933;50.754;11.508;2023-05-10T05:25:02;4.72;;;4.38;;
21543;SDS011;10933;50.754;11.508;2023-05-10T05:27:28;4.90;;;4.60;;
21543;SDS011;10933;50.754;11.508;2023-05-10T05:29:55;7.07;;;4.82;;
21543;SDS011;10933;50.754;11.508;2023-05-10T05:32:22;4.70;;;4.45;;
21543;SDS011;10933;50.754;11.508;2023-05-10T05:34:49;5.18;;;4.68;;
21543;SDS011;10933;50.754;11.508;2023-05-10T05:37:16;5.25;;;4.95;;
21543;SDS011;10933;50.754;11.508;2023-05-10T05:39:44;5.65;;;5.35;;
21543;SDS011;10933;50.754;11.508;2023-05-10T05:42:11;5.00;;;4.70;;
21543;SDS011;10933;50.754;11.508;2023-05-10T05:44:38;5.22;;;4.93;;
21543;SDS011;10933;50.754;11.508;2023-05-10T05:47:04;4.88;;;4.68;;
21543;SDS011;10933;50.754;11.508;2023-05-10T05:49:31;5.28;;;4.90;;
21543;SDS011;10933;50.754;11.508;2023-05-10T05:52:00;5.05;;;4.75;;
21543;SDS011;10933;50.754;11.508;2023-05-10T05:54:28;5.95;;;5.55;;
21543;SDS011;10933;50.754;11.508;2023-05-10T05:56:55;6.07;;;5.68;;
21543;SDS011;10933;50.754;11.508;2023-05-10T05:59:22;5.75;;;5.45;;
21543;SDS011;10933;50.754;11.508;2023-05-10T06:01:48;6.00;;;5.65;;
21543;SDS011;10933;50.754;11.508;2023-05-10T06:04:14;6.05;;;5.55;;
21543;SDS011;10933;50.754;11.508;2023-05-10T06:06:43;5.53;;;5.22;;
21543;SDS011;10933;50.754;11.508;2023-05-10T06:09:09;6.32;;;5.82;;
21543;SDS011;10933;50.754;11.508;2023-05-10T06:11:36;6.13;;;5.80;;
21543;SDS011;10933;50.754;11.508;2023-05-10T06:14:02;5.65;;;5.35;;
21543;SDS011;10933;50.754;11.508;2023-05-10T06:16:29;8.60;;;5.82;;
21543;SDS011;10933;50.754;11.508;2023-05-10T06:18:56;5.95;;;5.55;;
21543;SDS011;10933;50.754;11.508;2023-05-10T06:21:24;6.20;;;5.80;;
21543;SDS011;10933;50.754;11.508;2023-05-10T06:23:50;6.20;;;5.90;;
21543;SDS011;10933;50.754;11.508;2023-05-10T06:26:16;6.80;;;6.20;;
21543;SDS011;10933;50.754;11.508;2023-05-10T06:28:42;6.55;;;6.15;;
21543;SDS011;10933;50.754;11.508;2023-05-10T06:31:07;6.18;;;5.88;;
21543;SDS011;10933;50.754;11.508;2023-05-10T06:33:33;5.80;;;5.40;;
21543;SDS011;10933;50.754;11.508;2023-05-10T06:36:00;5.40;;;5.10;;
21543;SDS011;10933;50.754;11.508;2023-05-10T06:38:26;7.35;;;6.78;;
21543;SDS011;10933;50.754;11.508;2023-05-10T06:40:51;6.47;;;6.18;;
21543;SDS011;10933;50.754;11.508;2023-05-10T06:43:20;5.95;;;5.63;;
21543;SDS011;10933;50.754;11.508;2023-05-10T06:45:47;6.50;;;5.97;;
21543;SDS011;10933;50.754;11.508;2023-05-10T06:48:16;5.60;;;5.30;;
21543;SDS011;10933;50.754;11.508;2023-05-10T06:50:42;7.00;;;5.53;;
21543;SDS011;10933;50.754;11.508;2023-05-10T06:53:08;6.57;;;5.65;;
21543;SDS011;10933;50.754;11.508;2023-05-10T06:55:34;6.07;;;5.70;;
21543;SDS011;10933;50.754;11.508;2023-05-10T06:58:00;5.90;;;5.50;;
21543;SDS011;10933;50.754;11.508;2023-05-10T07:00:29;6.72;;;5.43;;
21543;SDS011;10933;50.754;11.508;2023-05-10T07:02:55;5.93;;;5.43;;
21543;SDS011;10933;50.754;11.508;2023-05-10T07:05:21;5.63;;;5.25;;
21543;SDS011;10933;50.754;11.508;2023-05-10T07:07:46;5.82;;;5.53;;
21543;SDS011;10933;50.754;11.508;2023-05-10T07:10:12;5.05;;;4.75;;
21543;SDS011;10933;50.754;11.508;2023-05-10T07:12:38;5.20;;;4.90;;
21543;SDS011;10933;50.754;11.508;2023-05-10T07:15:04;5.45;;;5.05;;
21543;SDS011;10933;50.754;11.508;2023-05-10T07:17:31;5.80;;;5.40;;
21543;SDS011;10933;50.754;11.508;2023-05-10T07:19:58;5.80;;;5.40;;
21543;SDS011;10933;50.754;11.508;2023-05-10T07:22:25;6.07;;;5.43;;
21543;SDS011;10933;50.754;11.508;2023-05-10T07:24:51;6.03;;;4.90;;
21543;SDS011;10933;50.754;11.508;2023-05-10T07:27:16;4.93;;;4.72;;
21543;SDS011;10933;50.754;11.508;2023-05-10T07:29:42;5.15;;;4.85;;
21543;SDS011;10933;50.754;11.508;2023-05-10T07:32:08;4.68;;;4.47;;
21543;SDS011;10933;50.754;11.508;2023-05-10T07:34:34;4.97;;;4.68;;
21543;SDS011;10933;50.754;11.508;2023-05-10T07:37:00;5.78;;;5.30;;
21543;SDS011;10933;50.754;11.508;2023-05-10T07:39:26;5.85;;;4.57;;
21543;SDS011;10933;50.754;11.508;2023-05-10T07:41:52;5.25;;;4.95;;
21543;SDS011;10933;50.754;11.508;2023-05-10T07:44:19;4.60;;;4.25;;
21543;SDS011;10933;50.754;11.508;2023-05-10T07:46:45;5.38;;;5.07;;
21543;SDS011;10933;50.754;11.508;2023-05-10T07:49:12;5.63;;;5.18;;
21543;SDS011;10933;50.754;11.508;2023-05-10T07:51:38;5.40;;;5.13;;
21543;SDS011;10933;50.754;11.508;2023-05-10T07:54:04;5.22;;;4.93;;
21543;SDS011;10933;50.754;11.508;2023-05-10T07:56:31;7.78;;;4.43;;
21543;SDS011;10933;50.754;11.508;2023-05-10T07:58:58;4.78;;;4.35;;
21543;SDS011;10933;50.754;11.508;2023-05-10T08:01:25;7.07;;;4.22;;
21543;SDS011;10933;50.754;11.508;2023-05-10T08:03:57;4.68;;;4.47;;
21543;SDS011;10933;50.754;11.508;2023-05-10T08:06:23;5.10;;;4.63;;
21543;SDS011;10933;50.754;11.508;2023-05-10T08:08:52;4.53;;;4.22;;
21543;SDS011;10933;50.754;11.508;2023-05-10T08:11:22;4.80;;;4.45;;
21543;SDS011;10933;50.754;11.508;2023-05-10T08:13:49;4.57;;;4.32;;
21543;SDS011;10933;50.754;11.508;2023-05-10T08:16:16;6.43;;;6.13;;
21543;SDS011;10933;50.754;11.508;2023-05-10T08:18:46;5.93;;;5.53;;
21543;SDS011;10933;50.754;11.508;2023-05-10T08:21:12;5.18;;;4.93;;
21543;SDS011;10933;50.754;11.508;2023-05-10T08:23:39;5.93;;;5.30;;
21543;SDS011;10933;50.754;11.508;2023-05-10T08:26:05;5.13;;;4.80;;
21543;SDS011;10933;50.754;11.508;2023-05-10T08:28:32;4.60;;;4.40;;
21543;SDS011;10933;50.754;11.508;2023-05-10T08:31:01;4.20;;;4.00;;
21543;SDS011;10933;50.754;11.508;2023-05-10T08:33:27;4.82;;;4.43;;
21543;SDS011;10933;50.754;11.508;2023-05-10T08:35:53;6.15;;;4.97;;
21543;SDS011;10933;50.754;11.508;2023-05-10T10:12:41;1.50;;;1.40;;
21543;SDS011;10933;50.754;11.508;2023-05-10T10:15:07;2.08;;;1.30;;
21543;SDS011;10933;50.754;11.508;2023-05-10T10:30:49;1.23;;;0.88;;
21543;SDS011;10933;50.754;11.508;2023-05-10T10:36:10;0.85;;;0.85;;
21543;SDS011;10933;50.754;11.508;2023-05-10T10:41:26;0.70;;;0.70;;
21543;SDS011;10933;50.754;11.508;2023-05-10T10:44:22;0.60;;;0.60;;
21543;SDS011;10933;50.754;11.508;2023-05-10T10:52:24;0.75;;;0.70;;
21543;SDS011;10933;50.754;11.508;2023-05-10T10:55:01;0.80;;;0.80;;
21543;SDS011;10933;50.754;11.508;2023-05-10T11:08:01;1.98;;;0.80;;
21543;SDS011;10933;50.754;11.508;2023-05-10T11:10:36;0.50;;;0.50;;
21543;SDS011;10933;50.754;11.508;2023-05-10T11:13:04;0.98;;;0.60;;
21543;SDS011;10933;50.754;11.508;2023-05-10T11:15:33;0.70;;;0.70;;
21543;SDS011;10933;50.754;11.508;2023-05-10T11:23:31;0.60;;;0.60;;
21543;SDS011;10933;50.754;11.508;2023-05-10T11:26:12;0.70;;;0.70;;
21543;SDS011;10933;50.754;11.508;2023-05-10T11:28:46;1.63;;;0.77;;
21543;SDS011;10933;50.754;11.508;2023-05-10T11:31:13;0.70;;;0.70;;
21543;SDS011;10933;50.754;11.508;2023-05-10T11:33:44;0.70;;;0.70;;
21543;SDS011;10933;50.754;11.508;2023-05-10T11:36:13;0.77;;;0.77;;
21543;SDS011;10933;50.754;11.508;2023-05-10T11:38:41;0.70;;;0.70;;
21543;SDS011;10933;50.754;11.508;2023-05-10T11:41:08;0.80;;;0.80;;
21543;SDS011;10933;50.754;11.508;2023-05-10T11:43:36;0.93;;;0.93;;
21543;SDS011;10933;50.754;11.508;2023-05-10T11:46:04;0.75;;;0.75;;
21543;SDS011;10933;50.754;11.508;2023-05-10T11:48:35;0.80;;;0.80;;
21543;SDS011;10933;50.754;11.508;2023-05-10T11:51:03;1.05;;;1.05;;
21543;SDS011;10933;50.754;11.508;2023-05-10T11:53:30;1.50;;;1.40;;
21543;SDS011;10933;50.754;11.508;2023-05-10T11:56:09;1.30;;;1.00;;
21543;SDS011;10933;50.754;11.508;2023-05-10T11:58:36;1.08;;;1.08;;
21543;SDS011;10933;50.754;11.508;2023-05-10T12:01:06;1.10;;;1.10;;
21543;SDS011;10933;50.754;11.508;2023-05-10T12:03:34;1.05;;;1.05;;
21543;SDS011;10933;50.754;11.508;2023-05-10T12:06:01;1.10;;;1.00;;
21543;SDS011;10933;50.754;11.508;2023-05-10T12:08:28;1.00;;;1.00;;
21543;SDS011;10933;50.754;11.508;2023-05-10T12:11:05;1.20;;;1.20;;
21543;SDS011;10933;50.754;11.508;2023-05-10T12:13:37;1.90;;;1.10;;
21543;SDS011;10933;50.754;11.508;2023-05-10T12:16:18;0.90;;;0.90;;
21543;SDS011;10933;50.754;11.508;2023-05-10T12:18:53;1.17;;;1.08;;
21543;SDS011;10933;50.754;11.508;2023-05-10T12:21:23;1.25;;;1.15;;
21543;SDS011;10933;50.754;11.508;2023-05-10T12:23:51;1.75;;;1.40;;
21543;SDS011;10933;50.754;11.508;2023-05-10T12:26:22;0.98;;;0.95;;
21543;SDS011;10933;50.754;11.508;2023-05-10T12:28:49;2.45;;;1.02;;
21543;SDS011;10933;50.754;11.508;2023-05-10T12:31:16;1.30;;;1.20;;
21543;SDS011;10933;50.754;11.508;2023-05-10T12:33:45;1.55;;;1.08;;
21543;SDS011;10933;50.754;11.508;2023-05-10T12:36:14;2.20;;;1.10;;
21543;SDS011;10933;50.754;11.508;2023-05-10T12:38:42;1.20;;;1.20;;
21543;SDS011;10933;50.754;11.508;2023-05-10T12:41:14;1.13;;;1.13;;
21543;SDS011;10933;50.754;11.508;2023-05-10T12:43:41;1.50;;;1.10;;
21543;SDS011;10933;50.754;11.508;2023-05-10T12:46:09;1.50;;;1.17;;
21543;SDS011;10933;50.754;11.508;2023-05-10T12:48:40;1.05;;;1.05;;
21543;SDS011;10933;50.754;11.508;2023-05-10T12:51:07;1.10;;;1.10;;
21543;SDS011;10933;50.754;11.508;2023-05-10T12:53:34;1.10;;;1.10;;
21543;SDS011;10933;50.754;11.508;2023-05-10T12:56:01;3.15;;;1.10;;
21543;SDS011;10933;50.754;11.508;2023-05-10T12:58:28;1.00;;;1.00;;
21543;SDS011;10933;50.754;11.508;2023-05-10T13:00:54;0.80;;;0.80;;
21543;SDS011;10933;50.754;11.508;2023-05-10T13:03:21;1.65;;;0.95;;
21543;SDS011;10933;50.754;11.508;2023-05-10T13:05:47;1.17;;;1.08;;
21543;SDS011;10933;50.754;11.508;2023-05-10T13:08:14;1.60;;;1.13;;
21543;SDS011;10933;50.754;11.508;2023-05-10T13:10:40;1.55;;;1.10;;
21543;SDS011;10933;50.754;11.508;2023-05-10T13:13:06;2.30;;;1.02;;
21543;SDS011;10933;50.754;11.508;2023-05-10T13:15:33;1.55;;;1.45;;
21543;SDS011;10933;50.754;11.508;2023-05-10T13:17:59;1.52;;;1.42;;
21543;SDS011;10933;50.754;11.508;2023-05-10T13:20:25;2.17;;;2.08;;
21543;SDS011;10933;50.754;11.508;2023-05-10T13:22:52;1.80;;;1.70;;
21543;SDS011;10933;50.754;11.508;2023-05-10T13:25:18;2.38;;;1.75;;
21543;SDS011;10933;50.754;11.508;2023-05-10T13:27:44;1.30;;;1.20;;
21543;SDS011;10933;50.754;11.508;2023-05-10T13:30:11;1.52;;;1.48;;
21543;SDS011;10933;50.754;11.508;2023-05-10T13:32:37;1.70;;;1.60;;
21543;SDS011;10933;50.754;11.508;2023-05-10T13:35:04;1.35;;;1.35;;
21543;SDS011;10933;50.754;11.508;2023-05-10T13:37:31;1.48;;;1.38;;
21543;SDS011;10933;50.754;11.508;2023-05-10T13:40:00;1.25;;;1.15;;
21543;SDS011;10933;50.754;11.508;2023-05-10T13:42:26;1.30;;;1.30;;
21543;SDS011;10933;50.754;11.508;2023-05-10T13:44:53;1.33;;;1.23;;
21543;SDS011;10933;50.754;11.508;2023-05-10T13:47:19;0.70;;;0.70;;
21543;SDS011;10933;50.754;11.508;2023-05-10T13:49:46;0.60;;;0.60;;
21543;SDS011;10933;50.754;11.508;2023-05-10T13:52:12;0.63;;;0.35;;
21543;SDS011;10933;50.754;11.508;2023-05-10T13:54:39;0.77;;;0.30;;
21543;SDS011;10933;50.754;11.508;2023-05-10T13:57:05;2.72;;;0.40;;
21543;SDS011;10933;50.754;11.508;2023-05-10T13:59:31;0.30;;;0.30;;
21543;SDS011;10933;50.754;11.508;2023-05-10T14:01:58;0.82;;;0.30;;
21543;SDS011;10933;50.754;11.508;2023-05-10T14:04:25;0.73;;;0.40;;
21543;SDS011;10933;50.754;11.508;2023-05-10T14:06:51;0.85;;;0.30;;
21543;SDS011;10933;50.754;11.508;2023-05-10T14:09:17;1.17;;;0.30;;
21543;SDS011;10933;50.754;11.508;2023-05-10T14:11:44;1.00;;;1.00;;
21543;SDS011;10933;50.754;11.508;2023-05-10T14:14:10;1.98;;;0.38;;
21543;SDS011;10933;50.754;11.508;2023-05-10T14:16:37;0.30;;;0.30;;
21543;SDS011;10933;50.754;11.508;2023-05-10T14:19:07;0.82;;;0.30;;
21543;SDS011;10933;50.754;11.508;2023-05-10T14:21:33;0.40;;;0.40;;
21543;SDS011;10933;50.754;11.508;2023-05-10T14:23:59;0.60;;;0.30;;
21543;SDS011;10933;50.754;11.508;2023-05-10T14:26:26;0.63;;;0.60;;
21543;SDS011;10933;50.754;11.508;2023-05-10T14:28:52;0.50;;;0.50;;
21543;SDS011;10933;50.754;11.508;2023-05-10T14:31:18;1.45;;;0.55;;
21543;SDS011;10933;50.754;11.508;2023-05-10T14:33:45;0.85;;;0.60;;
21543;SDS011;10933;50.754;11.508;2023-05-10T14:36:12;0.47;;;0.47;;
21543;SDS011;10933;50.754;11.508;2023-05-10T14:38:38;0.57;;;0.55;;
21543;SDS011;10933;50.754;11.508;2023-05-10T14:41:05;0.45;;;0.40;;
21543;SDS011;10933;50.754;11.508;2023-05-10T14:43:31;0.50;;;0.50;;
21543;SDS011;10933;50.754;11.508;2023-05-10T14:45:58;0.50;;;0.50;;
21543;SDS011;10933;50.754;11.508;2023-05-10T14:48:24;1.38;;;0.40;;
21543;SDS011;10933;50.754;11.508;2023-05-10T14:50:50;0.60;;;0.60;;
21543;SDS011;10933;50.754;11.508;2023-05-10T14:53:17;0.55;;;0.55;;
21543;SDS011;10933;50.754;11.508;2023-05-10T14:55:43;3.35;;;0.50;;
21543;SDS011;10933;50.754;11.508;2023-05-10T14:58:09;0.50;;;0.40;;
21543;SDS011;10933;50.754;11.508;2023-05-10T15:00:35;0.40;;;0.40;;
21543;SDS011;10933;50.754;11.508;2023-05-10T15:03:02;4.65;;;0.50;;
21543;SDS011;10933;50.754;11.508;2023-05-10T15:05:28;0.40;;;0.40;;
21543;SDS011;10933;50.754;11.508;2023-05-10T15:07:54;0.47;;;0.47;;
21543;SDS011;10933;50.754;11.508;2023-05-10T15:10:20;0.70;;;0.50;;
21543;SDS011;10933;50.754;11.508;2023-05-10T15:12:47;0.50;;;0.50;;
21543;SDS011;10933;50.754;11.508;2023-05-10T15:15:13;0.40;;;0.40;;
21543;SDS011;10933;50.754;11.508;2023-05-10T15:17:39;0.40;;;0.40;;
21543;SDS011;10933;50.754;11.508;2023-05-10T15:20:06;0.50;;;0.50;;
21543;SDS011;10933;50.754;11.508;2023-05-10T15:22:33;0.40;;;0.40;;
21543;SDS011;10933;50.754;11.508;2023-05-10T15:24:59;0.40;;;0.40;;
21543;SDS011;10933;50.754;11.508;2023-05-10T15:27:25;0.50;;;0.50;;
21543;SDS011;10933;50.754;11.508;2023-05-10T15:29:52;1.00;;;1.00;;
21543;SDS011;10933;50.754;11.508;2023-05-10T15:32:18;2.53;;;2.42;;
21543;SDS011;10933;50.754;11.508;2023-05-10T15:34:44;2.13;;;2.03;;
21543;SDS011;10933;50.754;11.508;2023-05-10T15:37:11;1.15;;;1.15;;
21543;SDS011;10933;50.754;11.508;2023-05-10T15:39:37;0.50;;;0.50;;
21543;SDS011;10933;50.754;11.508;2023-05-10T15:42:03;1.63;;;0.40;;
21543;SDS011;10933;50.754;11.508;2023-05-10T15:44:29;0.40;;;0.40;;
21543;SDS011;10933;50.754;11.508;2023-05-10T15:46:55;0.40;;;0.40;;
21543;SDS011;10933;50.754;11.508;2023-05-10T15:49:22;1.13;;;0.40;;
21543;SDS011;10933;50.754;11.508;2023-05-10T15:51:48;0.70;;;0.50;;
21543;SDS011;10933;50.754;11.508;2023-05-10T15:54:14;0.60;;;0.47;;
21543;SDS011;10933;50.754;11.508;2023-05-10T15:56:40;0.98;;;0.43;;
21543;SDS011;10933;50.754;11.508;2023-05-10T15:59:06;0.40;;;0.40;;
21543;SDS011;10933;50.754;11.508;2023-05-10T16:01:34;0.55;;;0.40;;
21543;SDS011;10933;50.754;11.508;2023-05-10T16:04:00;0.40;;;0.40;;
21543;SDS011;10933;50.754;11.508;2023-05-10T16:06:27;1.27;;;0.68;;
21543;SDS011;10933;50.754;11.508;2023-05-10T16:08:53;0.55;;;0.50;;
21543;SDS011;10933;50.754;11.508;2023-05-10T16:11:19;0.65;;;0.45;;
21543;SDS011;10933;50.754;11.508;2023-05-10T16:13:45;0.93;;;0.93;;
21543;SDS011;10933;50.754;11.508;2023-05-10T16:16:12;2.72;;;2.53;;
21543;SDS011;10933;50.754;11.508;2023-05-10T16:18:38;4.53;;;4.22;;
21543;SDS011;10933;50.754;11.508;2023-05-10T16:21:04;3.13;;;2.92;;
21543;SDS011;10933;50.754;11.508;2023-05-10T16:23:30;4.40;;;4.10;;
21543;SDS011;10933;50.754;11.508;2023-05-10T16:25:56;4.05;;;1.67;;
21543;SDS011;10933;50.754;11.508;2023-05-10T16:28:23;0.65;;;0.65;;
21543;SDS011;10933;50.754;11.508;2023-05-10T16:30:49;0.80;;;0.80;;
21543;SDS011;10933;50.754;11.508;2023-05-10T16:33:16;0.80;;;0.80;;
21543;SDS011;10933;50.754;11.508;2023-05-10T16:35:42;1.40;;;0.50;;
21543;SDS011;10933;50.754;11.508;2023-05-10T16:38:08;0.80;;;0.80;;
21543;SDS011;10933;50.754;11.508;2023-05-10T16:40:35;2.40;;;2.30;;
21543;SDS011;10933;50.754;11.508;2023-05-10T16:43:01;1.10;;;1.10;;
21543;SDS011;10933;50.754;11.508;2023-05-10T16:45:29;5.47;;;5.07;;
21543;SDS011;10933;50.754;11.508;2023-05-10T16:47:56;4.35;;;4.05;;
21543;SDS011;10933;50.754;11.508;2023-05-10T16:50:22;3.47;;;3.28;;
21543;SDS011;10933;50.754;11.508;2023-05-10T16:52:48;0.90;;;0.90;;
21543;SDS011;10933;50.754;11.508;2023-05-10T16:55:14;1.45;;;1.33;;
21543;SDS011;10933;50.754;11.508;2023-05-10T16:57:40;9.05;;;8.45;;
21543;SDS011;10933;50.754;11.508;2023-05-10T17:00:07;3.03;;;2.83;;
21543;SDS011;10933;50.754;11.508;2023-05-10T17:02:35;2.10;;;2.00;;
21543;SDS011;10933;50.754;11.508;2023-05-10T17:05:02;4.18;;;1.92;;
21543;SDS011;10933;50.754;11.508;2023-05-10T17:07:29;5.03;;;4.63;;
21543;SDS011;10933;50.754;11.508;2023-05-10T17:09:55;8.57;;;7.97;;